AAL475 KJFK-KMIA
Flight info
| Callsign | AAL475 |
|---|---|
| Flight time | N/A |
| Altitude | 36000 |
| Route | WAVEY EMJAY Q167 KALDA Q101 BGBRD/N0475F380 Q101 SKARP Y313 HOAGG BNFSH3 |
| Aircraft | B77W/H-SDE1E2E3FGHIJ2J3J4J5M1RWXY/LB1D1 |
Departure
| Time | 2026-05-08 22:52 |
|---|---|
| Airport | John F. Kennedy International Airport (KJFK) |
Arrival
| Time | N/A |
|---|---|
| Airport | Miami International Airport (KMIA) |
| Time | Latitude | Longitude | Altitude | Speed | Heading |
|---|---|---|---|---|---|
| 2026-05-08 22:05 | 40.64777 | -73.79345 | 22 ft | 0 kts | 151° |
| 2026-05-08 22:20 | 40.64782 | -73.79349 | 23 ft | 4 kts | 151° |
| 2026-05-08 22:20 | 40.64806 | -73.79366 | 27 ft | 4 kts | 151° |
| 2026-05-08 22:20 | 40.64824 | -73.79380 | 22 ft | 4 kts | 162° |
| 2026-05-08 22:20 | 40.64845 | -73.79380 | 22 ft | 4 kts | 231° |
| 2026-05-08 22:21 | 40.64858 | -73.79352 | 27 ft | 4 kts | 241° |
| 2026-05-08 22:21 | 40.64865 | -73.79335 | 23 ft | 0 kts | 241° |
| 2026-05-08 22:27 | 40.64865 | -73.79337 | 22 ft | 0 kts | 241° |
| 2026-05-08 22:27 | 40.64862 | -73.79342 | 22 ft | 1 kts | 241° |
| 2026-05-08 22:28 | 40.64846 | -73.79380 | 25 ft | 13 kts | 241° |
| 2026-05-08 22:28 | 40.64807 | -73.79472 | 25 ft | 10 kts | 240° |
| 2026-05-08 22:28 | 40.64796 | -73.79496 | 25 ft | 0 kts | 239° |
| 2026-05-08 22:29 | 40.64788 | -73.79515 | 26 ft | 5 kts | 239° |
| 2026-05-08 22:29 | 40.64765 | -73.79572 | 23 ft | 9 kts | 242° |
| 2026-05-08 22:29 | 40.64726 | -73.79663 | 23 ft | 14 kts | 240° |
| 2026-05-08 22:30 | 40.64685 | -73.79714 | 24 ft | 3 kts | 181° |
| 2026-05-08 22:30 | 40.64637 | -73.79683 | 28 ft | 11 kts | 146° |
| 2026-05-08 22:30 | 40.64559 | -73.79614 | 26 ft | 16 kts | 154° |
| 2026-05-08 22:30 | 40.64482 | -73.79597 | 26 ft | 18 kts | 174° |
| 2026-05-08 22:31 | 40.64346 | -73.79593 | 28 ft | 20 kts | 184° |
| 2026-05-08 22:31 | 40.64207 | -73.79605 | 28 ft | 20 kts | 182° |
| 2026-05-08 22:31 | 40.64081 | -73.79596 | 30 ft | 17 kts | 163° |
| 2026-05-08 22:31 | 40.63986 | -73.79512 | 28 ft | 17 kts | 125° |
| 2026-05-08 22:32 | 40.63959 | -73.79453 | 27 ft | 0 kts | 121° |
| 2026-05-08 22:33 | 40.63959 | -73.79451 | 29 ft | 1 kts | 121° |
| 2026-05-08 22:34 | 40.63915 | -73.79355 | 26 ft | 19 kts | 120° |
| 2026-05-08 22:34 | 40.63847 | -73.79206 | 26 ft | 19 kts | 121° |
| 2026-05-08 22:34 | 40.63779 | -73.79056 | 26 ft | 19 kts | 121° |
| 2026-05-08 22:34 | 40.63711 | -73.78905 | 26 ft | 19 kts | 121° |
| 2026-05-08 22:35 | 40.63643 | -73.78753 | 27 ft | 19 kts | 120° |
| 2026-05-08 22:35 | 40.63575 | -73.78602 | 27 ft | 19 kts | 120° |
| 2026-05-08 22:35 | 40.63505 | -73.78452 | 26 ft | 19 kts | 121° |
| 2026-05-08 22:35 | 40.63436 | -73.78302 | 26 ft | 19 kts | 121° |
| 2026-05-08 22:36 | 40.63368 | -73.78150 | 26 ft | 19 kts | 119° |
| 2026-05-08 22:36 | 40.63330 | -73.78013 | 27 ft | 16 kts | 95° |
| 2026-05-08 22:36 | 40.63342 | -73.77890 | 26 ft | 7 kts | 86° |
| 2026-05-08 22:36 | 40.63322 | -73.77834 | 27 ft | 8 kts | 122° |
| 2026-05-08 22:37 | 40.63276 | -73.77734 | 29 ft | 13 kts | 121° |
| 2026-05-08 22:37 | 40.63222 | -73.77615 | 28 ft | 18 kts | 121° |
| 2026-05-08 22:37 | 40.63159 | -73.77476 | 27 ft | 18 kts | 120° |
| 2026-05-08 22:37 | 40.63097 | -73.77338 | 29 ft | 18 kts | 121° |
| 2026-05-08 22:38 | 40.63034 | -73.77200 | 29 ft | 18 kts | 120° |
| 2026-05-08 22:38 | 40.62985 | -73.77094 | 29 ft | 8 kts | 128° |
| 2026-05-08 22:38 | 40.62936 | -73.77093 | 30 ft | 8 kts | 215° |
| 2026-05-08 22:38 | 40.62882 | -73.77137 | 27 ft | 15 kts | 211° |
| 2026-05-08 22:39 | 40.62822 | -73.77201 | 27 ft | 9 kts | 245° |
| 2026-05-08 22:39 | 40.62834 | -73.77253 | 27 ft | 0 kts | 302° |
| 2026-05-08 22:39 | 40.62904 | -73.77405 | 29 ft | 62 kts | 301° |
| 2026-05-08 22:39 | 40.63292 | -73.78261 | 28 ft | 113 kts | 300° |
| 2026-05-08 22:40 | 40.63537 | -73.78808 | 28 ft | 48 kts | 301° |
| 2026-05-08 22:40 | 40.63705 | -73.79168 | 32 ft | 44 kts | 301° |
| 2026-05-08 22:40 | 40.63819 | -73.79408 | 28 ft | 31 kts | 303° |
| 2026-05-08 22:40 | 40.63933 | -73.79517 | 30 ft | 16 kts | 6° |
| 2026-05-08 22:41 | 40.63969 | -73.79489 | 26 ft | 5 kts | 72° |
| 2026-05-08 22:41 | 40.63959 | -73.79453 | 29 ft | 0 kts | 118° |
| 2026-05-08 22:42 | 40.63951 | -73.79434 | 26 ft | 11 kts | 118° |
| 2026-05-08 22:42 | 40.63906 | -73.79326 | 31 ft | 14 kts | 121° |
| 2026-05-08 22:42 | 40.63853 | -73.79219 | 31 ft | 14 kts | 123° |
| 2026-05-08 22:42 | 40.63803 | -73.79111 | 30 ft | 14 kts | 121° |
| 2026-05-08 22:43 | 40.63749 | -73.78991 | 27 ft | 15 kts | 120° |
| 2026-05-08 22:43 | 40.63723 | -73.78932 | 32 ft | 11 kts | 120° |
| 2026-05-08 22:43 | 40.63685 | -73.78847 | 27 ft | 11 kts | 120° |
| 2026-05-08 22:43 | 40.63647 | -73.78762 | 27 ft | 11 kts | 121° |
| 2026-05-08 22:44 | 40.63608 | -73.78678 | 26 ft | 11 kts | 121° |
| 2026-05-08 22:44 | 40.63564 | -73.78580 | 27 ft | 14 kts | 121° |
| 2026-05-08 22:44 | 40.63506 | -73.78453 | 26 ft | 17 kts | 121° |
| 2026-05-08 22:44 | 40.63449 | -73.78326 | 26 ft | 12 kts | 121° |
| 2026-05-08 22:45 | 40.63407 | -73.78231 | 27 ft | 12 kts | 121° |
| 2026-05-08 22:45 | 40.63365 | -73.78140 | 26 ft | 11 kts | 121° |
| 2026-05-08 22:45 | 40.63333 | -73.78054 | 29 ft | 11 kts | 109° |
| 2026-05-08 22:45 | 40.63307 | -73.77990 | 27 ft | 0 kts | 147° |
| 2026-05-08 22:46 | 40.63305 | -73.77970 | 27 ft | 3 kts | 77° |
| 2026-05-08 22:46 | 40.63334 | -73.77922 | 31 ft | 12 kts | 56° |
| 2026-05-08 22:46 | 40.63334 | -73.77850 | 27 ft | 8 kts | 120° |
| 2026-05-08 22:47 | 40.63287 | -73.77756 | 29 ft | 21 kts | 122° |
| 2026-05-08 22:47 | 40.63217 | -73.77603 | 27 ft | 17 kts | 120° |
| 2026-05-08 22:47 | 40.63157 | -73.77469 | 27 ft | 17 kts | 122° |
| 2026-05-08 22:47 | 40.63092 | -73.77325 | 29 ft | 21 kts | 120° |
| 2026-05-08 22:48 | 40.63029 | -73.77188 | 26 ft | 14 kts | 121° |
| 2026-05-08 22:48 | 40.62959 | -73.77094 | 30 ft | 15 kts | 177° |
| 2026-05-08 22:48 | 40.62903 | -73.77123 | 26 ft | 0 kts | 208° |
| 2026-05-08 22:48 | 40.62899 | -73.77126 | 26 ft | 6 kts | 208° |
| 2026-05-08 22:49 | 40.62825 | -73.77202 | 27 ft | 15 kts | 251° |
| 2026-05-08 22:49 | 40.62833 | -73.77251 | 27 ft | 0 kts | 301° |
| 2026-05-08 22:51 | 40.62836 | -73.77257 | 27 ft | 7 kts | 301° |
| 2026-05-08 22:51 | 40.62984 | -73.77583 | 29 ft | 83 kts | 301° |
| 2026-05-08 22:51 | 40.63414 | -73.78531 | 26 ft | 155 kts | 301° |
| 2026-05-08 22:52 | 40.64044 | -73.79945 | 244 ft | 189 kts | 301° |
| 2026-05-08 22:52 | 40.64705 | -73.81475 | 947 ft | 197 kts | 301° |
| 2026-05-08 22:52 | 40.65375 | -73.83113 | 1526 ft | 212 kts | 294° |
| 2026-05-08 22:52 | 40.65671 | -73.85098 | 1929 ft | 231 kts | 263° |
| 2026-05-08 22:53 | 40.65002 | -73.86958 | 2677 ft | 235 kts | 226° |
| 2026-05-08 22:53 | 40.63560 | -73.88056 | 3339 ft | 244 kts | 198° |
| 2026-05-08 22:53 | 40.61830 | -73.88077 | 4085 ft | 259 kts | 169° |
| 2026-05-08 22:53 | 40.60219 | -73.86941 | 4847 ft | 273 kts | 140° |
| 2026-05-08 22:54 | 40.59101 | -73.84862 | 5540 ft | 287 kts | 114° |
| 2026-05-08 22:54 | 40.58450 | -73.82341 | 6260 ft | 295 kts | 108° |
| 2026-05-08 22:54 | 40.57839 | -73.79741 | 7054 ft | 300 kts | 108° |
| 2026-05-08 22:54 | 40.57115 | -73.77164 | 7775 ft | 301 kts | 123° |
| 2026-05-08 22:55 | 40.55697 | -73.75150 | 8425 ft | 301 kts | 146° |
| 2026-05-08 22:55 | 40.54012 | -73.73480 | 9165 ft | 306 kts | 147° |
| 2026-05-08 22:55 | 40.52318 | -73.71759 | 9996 ft | 310 kts | 146° |
| 2026-05-08 22:55 | 40.50608 | -73.69955 | 10585 ft | 324 kts | 145° |
| 2026-05-08 22:56 | 40.48791 | -73.67987 | 10787 ft | 352 kts | 144° |
| 2026-05-08 22:56 | 40.46839 | -73.65834 | 11011 ft | 379 kts | 143° |
| 2026-05-08 22:56 | 40.44792 | -73.63537 | 11602 ft | 393 kts | 143° |
| 2026-05-08 22:56 | 40.42693 | -73.61157 | 12414 ft | 403 kts | 142° |
| 2026-05-08 22:57 | 40.40546 | -73.58719 | 13276 ft | 412 kts | 142° |
| 2026-05-08 22:57 | 40.38364 | -73.56239 | 14201 ft | 418 kts | 143° |
| 2026-05-08 22:57 | 40.36152 | -73.53725 | 15102 ft | 424 kts | 143° |
| 2026-05-08 22:57 | 40.33902 | -73.51171 | 15957 ft | 431 kts | 143° |
| 2026-05-08 22:58 | 40.31612 | -73.48574 | 16761 ft | 439 kts | 143° |
| 2026-05-08 22:58 | 40.29259 | -73.46026 | 17516 ft | 437 kts | 151° |
| 2026-05-08 22:58 | 40.26521 | -73.44429 | 18136 ft | 428 kts | 175° |
| 2026-05-08 22:58 | 40.23613 | -73.44288 | 18942 ft | 412 kts | 196° |
| 2026-05-08 22:59 | 40.20846 | -73.45099 | 19807 ft | 404 kts | 206° |
| 2026-05-08 22:59 | 40.18291 | -73.46522 | 20621 ft | 397 kts | 216° |
| 2026-05-08 22:59 | 40.15853 | -73.48250 | 21381 ft | 400 kts | 218° |
| 2026-05-08 22:59 | 40.13453 | -73.50029 | 22094 ft | 404 kts | 218° |
| 2026-05-08 23:00 | 40.11002 | -73.51862 | 22787 ft | 408 kts | 218° |
| 2026-05-08 23:00 | 40.08541 | -73.53687 | 22959 ft | 408 kts | 218° |
| 2026-05-08 23:00 | 40.06059 | -73.55512 | 22959 ft | 411 kts | 218° |
| 2026-05-08 23:00 | 40.03563 | -73.57329 | 22958 ft | 411 kts | 217° |
| 2026-05-08 23:01 | 40.01057 | -73.59136 | 22954 ft | 411 kts | 217° |
| 2026-05-08 23:01 | 39.98524 | -73.60956 | 22952 ft | 410 kts | 217° |
| 2026-05-08 23:01 | 39.96059 | -73.62721 | 22954 ft | 409 kts | 217° |
| 2026-05-08 23:01 | 39.93567 | -73.64505 | 22953 ft | 408 kts | 217° |
| 2026-05-08 23:02 | 39.91080 | -73.66285 | 22953 ft | 408 kts | 217° |
| 2026-05-08 23:02 | 39.88598 | -73.68060 | 22958 ft | 407 kts | 217° |
| 2026-05-08 23:02 | 39.86115 | -73.69836 | 22971 ft | 408 kts | 217° |
| 2026-05-08 23:02 | 39.83616 | -73.71625 | 23507 ft | 412 kts | 217° |
| 2026-05-08 23:03 | 39.81090 | -73.73431 | 24238 ft | 415 kts | 217° |
| 2026-05-08 23:03 | 39.78551 | -73.75245 | 24939 ft | 418 kts | 217° |
| 2026-05-08 23:03 | 39.75989 | -73.77071 | 25608 ft | 421 kts | 217° |
| 2026-05-08 23:03 | 39.73411 | -73.78906 | 26232 ft | 424 kts | 217° |
| 2026-05-08 23:04 | 39.70811 | -73.80756 | 26806 ft | 428 kts | 217° |
| 2026-05-08 23:04 | 39.68183 | -73.82625 | 27350 ft | 432 kts | 217° |
| 2026-05-08 23:04 | 39.65539 | -73.84502 | 27946 ft | 434 kts | 217° |
| 2026-05-08 23:04 | 39.62882 | -73.86385 | 28480 ft | 437 kts | 217° |
| 2026-05-08 23:05 | 39.60204 | -73.88281 | 28984 ft | 440 kts | 218° |
| 2026-05-08 23:05 | 39.57507 | -73.90192 | 29454 ft | 443 kts | 217° |
| 2026-05-08 23:05 | 39.54793 | -73.92110 | 29934 ft | 445 kts | 217° |
| 2026-05-08 23:05 | 39.52060 | -73.94040 | 30388 ft | 448 kts | 218° |
| 2026-05-08 23:06 | 39.49321 | -73.95976 | 30771 ft | 450 kts | 218° |
| 2026-05-08 23:06 | 39.46566 | -73.97919 | 31186 ft | 452 kts | 218° |
| 2026-05-08 23:06 | 39.43809 | -73.99863 | 31625 ft | 451 kts | 219° |
| 2026-05-08 23:06 | 39.41157 | -74.01957 | 32141 ft | 443 kts | 224° |
| 2026-05-08 23:07 | 39.38707 | -74.04314 | 32642 ft | 433 kts | 229° |
| 2026-05-08 23:07 | 39.36440 | -74.06846 | 33145 ft | 430 kts | 230° |
| 2026-05-08 23:07 | 39.34172 | -74.09361 | 33627 ft | 428 kts | 230° |
| 2026-05-08 23:07 | 39.31909 | -74.11853 | 34064 ft | 427 kts | 230° |
| 2026-05-08 23:08 | 39.29643 | -74.14333 | 34510 ft | 426 kts | 230° |
| 2026-05-08 23:08 | 39.27385 | -74.16799 | 34897 ft | 425 kts | 230° |
| 2026-05-08 23:08 | 39.25129 | -74.19261 | 35269 ft | 424 kts | 230° |
| 2026-05-08 23:08 | 39.22876 | -74.21716 | 35638 ft | 424 kts | 230° |
| 2026-05-08 23:09 | 39.20625 | -74.24168 | 35974 ft | 423 kts | 230° |
| 2026-05-08 23:09 | 39.18365 | -74.26631 | 35956 ft | 427 kts | 230° |
| 2026-05-08 23:09 | 39.13849 | -74.31536 | 35964 ft | 421 kts | 230° |
| 2026-05-08 23:10 | 39.09421 | -74.36333 | 35971 ft | 418 kts | 230° |
| 2026-05-08 23:10 | 39.04981 | -74.41144 | 35972 ft | 417 kts | 230° |
| 2026-05-08 23:11 | 39.00545 | -74.45942 | 35974 ft | 416 kts | 230° |
| 2026-05-08 23:11 | 38.96109 | -74.50732 | 35984 ft | 416 kts | 230° |
| 2026-05-08 23:12 | 38.91721 | -74.55568 | 35977 ft | 414 kts | 232° |
| 2026-05-08 23:12 | 38.87491 | -74.60579 | 35983 ft | 413 kts | 233° |
| 2026-05-08 23:13 | 38.83260 | -74.65579 | 35982 ft | 413 kts | 233° |
| 2026-05-08 23:13 | 38.79007 | -74.70547 | 35992 ft | 414 kts | 232° |
| 2026-05-08 23:14 | 38.74734 | -74.75492 | 35992 ft | 416 kts | 231° |
| 2026-05-08 23:14 | 38.70243 | -74.80210 | 35988 ft | 417 kts | 230° |
| 2026-05-08 23:15 | 38.65736 | -74.84870 | 36000 ft | 416 kts | 230° |
| 2026-05-08 23:15 | 38.62001 | -74.88747 | 36000 ft | 415 kts | 230° |
| 2026-05-08 23:16 | 38.57524 | -74.93400 | 36008 ft | 414 kts | 230° |
| 2026-05-08 23:16 | 38.52331 | -74.98797 | 36007 ft | 413 kts | 231° |
| 2026-05-08 23:17 | 38.48723 | -75.02806 | 36012 ft | 410 kts | 232° |
| 2026-05-08 23:17 | 38.44289 | -75.07445 | 36020 ft | 416 kts | 228° |
| 2026-05-08 23:18 | 38.39641 | -75.11839 | 36018 ft | 416 kts | 228° |
| 2026-05-08 23:18 | 38.34993 | -75.16234 | 36030 ft | 416 kts | 228° |
| 2026-05-08 23:19 | 38.30355 | -75.20635 | 36027 ft | 416 kts | 228° |
| 2026-05-08 23:19 | 38.25717 | -75.25030 | 36027 ft | 415 kts | 228° |
| 2026-05-08 23:20 | 38.21085 | -75.29411 | 36026 ft | 415 kts | 228° |
| 2026-05-08 23:20 | 38.16481 | -75.33761 | 36023 ft | 415 kts | 228° |
| 2026-05-08 23:21 | 38.11849 | -75.38132 | 36023 ft | 415 kts | 228° |
| 2026-05-08 23:21 | 38.07213 | -75.42498 | 36027 ft | 415 kts | 228° |
| 2026-05-08 23:22 | 38.02528 | -75.46799 | 36029 ft | 417 kts | 226° |
| 2026-05-08 23:22 | 37.97714 | -75.50920 | 36045 ft | 417 kts | 226° |
| 2026-05-08 23:23 | 37.92929 | -75.55037 | 36033 ft | 415 kts | 226° |
| 2026-05-08 23:23 | 37.88166 | -75.59133 | 36030 ft | 416 kts | 224° |
| 2026-05-08 23:24 | 37.85487 | -75.60725 | 36044 ft | 436 kts | 212° |
| 2026-05-08 23:24 | 37.82510 | -75.61734 | 36036 ft | 451 kts | 205° |
| 2026-05-08 23:24 | 37.79339 | -75.62227 | 36029 ft | 471 kts | 194° |
| 2026-05-08 23:24 | 37.76004 | -75.61953 | 36053 ft | 486 kts | 187° |
| 2026-05-08 23:25 | 37.69313 | -75.61230 | 36033 ft | 473 kts | 194° |
| 2026-05-08 23:25 | 37.66073 | -75.61449 | 36042 ft | 459 kts | 201° |
| 2026-05-08 23:25 | 37.62972 | -75.62109 | 36055 ft | 450 kts | 205° |
| 2026-05-08 23:26 | 37.56799 | -75.63539 | 36048 ft | 452 kts | 204° |
| 2026-05-08 23:26 | 37.50591 | -75.64903 | 36049 ft | 453 kts | 204° |
| 2026-05-08 23:27 | 37.44365 | -75.66242 | 36054 ft | 454 kts | 204° |
| 2026-05-08 23:27 | 37.38140 | -75.67577 | 36048 ft | 454 kts | 204° |
| 2026-05-08 23:28 | 37.31905 | -75.68912 | 36037 ft | 454 kts | 204° |
| 2026-05-08 23:28 | 37.25721 | -75.70240 | 36048 ft | 454 kts | 204° |
| 2026-05-08 23:29 | 37.19458 | -75.71584 | 36054 ft | 453 kts | 204° |
| 2026-05-08 23:29 | 37.13290 | -75.72900 | 36035 ft | 452 kts | 205° |
| 2026-05-08 23:30 | 37.07225 | -75.74538 | 36034 ft | 434 kts | 213° |
| 2026-05-08 23:30 | 37.01738 | -75.77286 | 36031 ft | 416 kts | 221° |
| 2026-05-08 23:31 | 36.96727 | -75.80748 | 36031 ft | 410 kts | 223° |
| 2026-05-08 23:31 | 36.91750 | -75.84229 | 36037 ft | 410 kts | 223° |
| 2026-05-08 23:32 | 36.86765 | -75.87701 | 36042 ft | 410 kts | 223° |
| 2026-05-08 23:32 | 36.81762 | -75.91168 | 36048 ft | 414 kts | 223° |
| 2026-05-08 23:33 | 36.76669 | -75.94698 | 36036 ft | 422 kts | 223° |
| 2026-05-08 23:33 | 36.71529 | -75.98234 | 36034 ft | 421 kts | 223° |
| 2026-05-08 23:34 | 36.66403 | -76.01757 | 36037 ft | 420 kts | 223° |
| 2026-05-08 23:34 | 36.61301 | -76.05254 | 36044 ft | 418 kts | 223° |
| 2026-05-08 23:35 | 36.56216 | -76.08744 | 36036 ft | 416 kts | 223° |
| 2026-05-08 23:35 | 36.51191 | -76.12190 | 36037 ft | 414 kts | 223° |